createdAt,value
2022-08-04T00:00:39.624Z,27.47
2022-08-04T00:05:50.090Z,27.42
2022-08-04T00:10:54.582Z,27.42
2022-08-04T00:16:00.382Z,27.40
2022-08-04T00:21:04.909Z,27.35
2022-08-04T00:26:06.309Z,27.34
2022-08-04T00:31:13.217Z,27.41
2022-08-04T00:36:17.404Z,27.38
2022-08-04T00:41:56.550Z,27.28
2022-08-04T00:47:18.878Z,27.33
2022-08-04T00:52:42.588Z,27.33
2022-08-04T00:58:05.621Z,27.22
2022-08-04T01:03:11.764Z,27.33
2022-08-04T01:08:22.028Z,27.18
2022-08-04T01:13:34.502Z,27.20
2022-08-04T01:18:57.748Z,27.20
2022-08-04T01:24:24.752Z,27.28
2022-08-04T01:29:31.051Z,27.28
2022-08-04T01:34:52.838Z,27.25
2022-08-04T01:40:02.027Z,27.19
2022-08-04T01:45:05.677Z,27.18
2022-08-04T01:50:12.021Z,27.24
2022-08-04T01:55:14.217Z,27.22
2022-08-04T02:00:23.079Z,27.23
2022-08-04T02:05:25.593Z,27.22
2022-08-04T02:11:05.069Z,27.19
2022-08-04T02:16:12.530Z,27.24
2022-08-04T02:21:13.940Z,27.21
2022-08-04T02:26:22.584Z,27.19
2022-08-04T02:31:31.458Z,27.21
2022-08-04T02:36:40.417Z,27.21
2022-08-04T02:41:41.979Z,27.17
2022-08-04T02:46:43.394Z,27.17
2022-08-04T02:51:50.744Z,27.17
2022-08-04T02:56:53.177Z,27.19
2022-08-04T03:01:58.252Z,27.19
2022-08-04T03:07:25.052Z,27.16
2022-08-04T03:12:58.857Z,27.14
2022-08-04T03:18:14.130Z,27.17
2022-08-04T03:23:30.720Z,27.20
2022-08-04T03:29:02.501Z,27.18
2022-08-04T03:34:25.882Z,27.20
2022-08-04T03:39:52.285Z,27.18
2022-08-04T03:45:24.513Z,27.18
2022-08-04T03:51:35.941Z,27.18
2022-08-04T03:57:09.397Z,27.15
2022-08-04T04:02:24.118Z,27.12
2022-08-04T04:07:58.252Z,27.20
2022-08-04T04:13:24.542Z,27.13
2022-08-04T04:18:54.542Z,27.15
2022-08-04T04:24:20.145Z,27.08
2022-08-04T04:29:35.025Z,27.08
2022-08-04T04:34:46.970Z,27.14
2022-08-04T04:40:08.556Z,27.13
2022-08-04T04:45:12.741Z,27.16
2022-08-04T04:50:23.533Z,27.16
2022-08-04T04:55:35.702Z,27.15
2022-08-04T05:00:46.021Z,27.13
2022-08-04T05:06:18.305Z,27.12
2022-08-04T05:11:58.889Z,27.11
2022-08-04T05:17:17.989Z,27.14
2022-08-04T05:22:25.253Z,27.12
2022-08-04T05:27:39.719Z,27.14
2022-08-04T05:33:00.008Z,27.10
2022-08-04T05:38:03.116Z,27.13
2022-08-04T05:43:04.800Z,27.19
2022-08-04T05:48:07.577Z,27.12
2022-08-04T05:53:09.839Z,27.19
2022-08-04T05:58:13.638Z,27.22
2022-08-04T06:03:15.036Z,27.23
2022-08-04T06:08:16.466Z,27.22
2022-08-04T06:13:48.488Z,27.33
2022-08-04T06:20:02.192Z,27.42
2022-08-04T06:24:04.517Z,27.44
2022-08-04T06:29:10.993Z,27.44
2022-08-04T06:34:13.773Z,27.39
2022-08-04T06:39:15.195Z,27.54
2022-08-04T06:44:16.633Z,27.49
2022-08-04T06:49:18.061Z,27.60
2022-08-04T06:54:19.477Z,27.65
2022-08-04T06:59:22.147Z,27.66
2022-08-04T07:04:23.557Z,27.64
2022-08-04T07:09:24.961Z,27.69
2022-08-04T07:14:26.960Z,27.68
2022-08-04T07:19:28.369Z,27.73
2022-08-04T07:24:31.209Z,27.55
2022-08-04T07:29:34.709Z,27.63
2022-08-04T07:34:36.129Z,27.66
2022-08-04T07:39:47.974Z,27.68
2022-08-04T07:44:50.025Z,27.70
2022-08-04T07:49:56.571Z,27.71
2022-08-04T07:54:59.256Z,27.74
2022-08-04T08:00:01.013Z,27.65
2022-08-04T08:05:02.753Z,27.66
2022-08-04T08:10:04.289Z,27.76
2022-08-04T08:15:07.320Z,27.76
2022-08-04T08:20:11.801Z,27.93
2022-08-04T08:25:31.825Z,28.00
2022-08-04T08:30:33.577Z,27.88
2022-08-04T08:35:51.146Z,27.82
2022-08-04T08:40:58.945Z,27.69
2022-08-04T08:46:48.013Z,27.85
2022-08-04T08:52:04.089Z,27.84
2022-08-04T08:57:11.345Z,28.04
2022-08-04T09:02:34.950Z,27.88
2022-08-04T09:08:07.041Z,27.90
2022-08-04T09:13:21.330Z,27.85
2022-08-04T09:18:28.304Z,27.94
2022-08-04T09:23:51.407Z,27.92
2022-08-04T09:29:26.346Z,27.92
2022-08-04T09:34:32.041Z,27.84
2022-08-04T09:39:37.451Z,27.95
2022-08-04T09:45:06.235Z,27.87
2022-08-04T09:50:28.242Z,27.95
2022-08-04T09:55:31.664Z,28.08
2022-08-04T10:00:41.290Z,28.15
2022-08-04T10:06:01.265Z,28.15
2022-08-04T10:11:21.556Z,28.07
2022-08-04T10:16:58.501Z,28.17
2022-08-04T10:22:29.336Z,28.18
2022-08-04T10:27:46.154Z,28.18
2022-08-04T10:33:09.625Z,28.20
2022-08-04T10:38:29.805Z,28.16
2022-08-04T10:43:51.985Z,28.17
2022-08-04T10:48:57.796Z,28.09
2022-08-04T10:54:32.921Z,28.07
2022-08-04T11:00:11.718Z,28.06
2022-08-04T11:05:51.943Z,28.00
2022-08-04T11:11:11.733Z,27.91
2022-08-04T11:16:55.033Z,27.83
2022-08-04T11:22:25.375Z,27.86
2022-08-04T11:27:43.681Z,27.81
2022-08-04T11:32:51.968Z,27.87
2022-08-04T11:38:02.453Z,27.84
2022-08-04T11:43:09.952Z,27.83
2022-08-04T11:48:13.716Z,27.83
2022-08-04T11:53:16.894Z,27.69
2022-08-04T11:58:18.805Z,27.74
2022-08-04T12:04:11.405Z,27.78
2022-08-04T12:09:20.344Z,27.83
2022-08-04T12:14:38.697Z,27.73
2022-08-04T12:20:03.895Z,27.81
2022-08-04T12:25:13.033Z,27.80
2022-08-04T12:30:59.318Z,27.68
2022-08-04T12:36:10.622Z,27.69
2022-08-04T12:41:03.583Z,27.70
2022-08-04T12:46:06.337Z,27.76
2022-08-04T12:51:30.881Z,27.86
2022-08-04T12:56:30.489Z,27.80
2022-08-04T13:02:07.249Z,27.73
2022-08-04T13:07:01.977Z,27.75
2022-08-04T13:12:06.073Z,27.81
2022-08-04T13:17:08.555Z,27.66
2022-08-04T13:22:10.204Z,27.76
2022-08-04T13:27:16.418Z,27.81
2022-08-04T13:32:22.407Z,27.95
2022-08-04T13:37:26.521Z,28.00
2022-08-04T13:42:28.501Z,28.03
2022-08-04T13:47:31.776Z,28.09
2022-08-04T13:52:33.593Z,28.28
2022-08-04T13:57:36.804Z,28.22
2022-08-04T14:02:45.391Z,28.28
2022-08-04T14:07:51.411Z,28.39
2022-08-04T14:12:53.019Z,28.44
2022-08-04T14:17:54.441Z,28.55
2022-08-04T14:22:57.517Z,28.54
2022-08-04T14:27:58.946Z,28.54
2022-08-04T14:34:02.085Z,28.52
2022-08-04T14:38:24.573Z,28.61
2022-08-04T14:43:26.189Z,28.51
2022-08-04T14:48:27.599Z,28.52
2022-08-04T14:53:31.858Z,28.42
2022-08-04T14:58:39.444Z,28.65
2022-08-04T15:03:50.853Z,28.60
2022-08-04T15:08:55.949Z,28.51
2022-08-04T15:13:57.496Z,28.51
2022-08-04T15:19:00.080Z,28.39
2022-08-04T15:24:02.382Z,28.43
2022-08-04T15:29:17.937Z,28.36
2022-08-04T15:34:19.541Z,28.32
2022-08-04T15:39:25.891Z,28.25
2022-08-04T15:44:55.165Z,28.24
2022-08-04T15:50:11.128Z,28.18
2022-08-04T15:55:35.144Z,28.16
2022-08-04T16:00:50.081Z,28.11
2022-08-04T16:05:51.548Z,28.15
2022-08-04T16:10:53.193Z,28.10
2022-08-04T16:15:55.522Z,28.12
2022-08-04T16:21:03.610Z,28.08
2022-08-04T16:26:05.038Z,28.07
2022-08-04T16:31:07.069Z,28.05
2022-08-04T16:36:10.778Z,28.14
2022-08-04T16:41:12.311Z,28.09
2022-08-04T16:46:21.789Z,28.06
2022-08-04T16:51:23.457Z,28.07
2022-08-04T16:56:29.484Z,28.02
2022-08-04T17:01:33.173Z,28.05
2022-08-04T17:06:42.005Z,28.02
2022-08-04T17:11:43.946Z,28.03
2022-08-04T17:16:45.353Z,28.02
2022-08-04T17:21:47.072Z,28.06
2022-08-04T17:26:51.813Z,28.06
2022-08-04T17:31:56.161Z,28.05
2022-08-04T17:37:31.162Z,28.10
2022-08-04T17:42:30.325Z,28.04
2022-08-04T17:47:37.951Z,28.05
2022-08-04T17:52:44.948Z,28.01
2022-08-04T17:57:52.650Z,28.06
2022-08-04T18:02:54.657Z,28.00
2022-08-04T18:08:35.108Z,28.02
2022-08-04T18:13:17.614Z,27.99
2022-08-04T18:18:23.764Z,28.00
2022-08-04T18:23:32.152Z,27.98
2022-08-04T18:28:34.701Z,27.95
2022-08-04T18:39:13.124Z,27.97
2022-08-04T18:44:16.598Z,27.97
2022-08-04T18:50:40.194Z,27.96
2022-08-04T19:00:01.450Z,27.99
2022-08-04T19:05:03.766Z,27.98
2022-08-04T19:10:06.657Z,27.95
2022-08-04T19:15:34.192Z,27.96
2022-08-04T19:20:39.564Z,27.95
2022-08-04T19:26:02.021Z,27.97
2022-08-04T19:31:06.641Z,27.98
2022-08-04T19:36:08.264Z,27.95
2022-08-04T19:41:14.534Z,27.96
2022-08-04T19:46:17.801Z,27.96
2022-08-04T19:51:21.005Z,27.94
2022-08-04T19:56:25.771Z,27.95
2022-08-04T20:01:32.565Z,27.94
2022-08-04T20:06:37.640Z,27.95
2022-08-04T20:11:39.093Z,27.88
2022-08-04T20:16:41.034Z,27.92
2022-08-04T20:21:55.672Z,27.96
2022-08-04T20:26:57.909Z,27.92
2022-08-04T20:32:05.404Z,27.93
2022-08-04T20:37:10.712Z,27.90
2022-08-04T20:42:13.184Z,27.98
2022-08-04T20:47:15.113Z,27.95
2022-08-04T20:52:20.293Z,27.96
2022-08-04T20:57:49.762Z,27.97
2022-08-04T21:02:44.442Z,27.85
2022-08-04T21:07:48.926Z,27.95
2022-08-04T21:12:50.593Z,27.92
2022-08-04T21:17:57.661Z,27.90
2022-08-04T21:23:04.909Z,27.96
2022-08-04T21:28:06.633Z,27.92
2022-08-04T21:33:10.264Z,27.91
2022-08-04T21:38:16.657Z,27.93
2022-08-04T21:43:18.920Z,27.94
2022-08-04T21:48:21.645Z,27.95
2022-08-04T21:53:23.081Z,27.84
2022-08-04T21:58:32.640Z,27.89
2022-08-04T22:03:53.200Z,27.87
2022-08-04T22:08:55.525Z,27.92
2022-08-04T22:14:10.716Z,27.95
2022-08-04T22:19:13.713Z,27.97
2022-08-04T22:24:15.222Z,27.87
2022-08-04T22:29:16.874Z,27.85
2022-08-04T22:34:18.296Z,27.83
2022-08-04T22:39:23.617Z,27.78
2022-08-04T22:44:29.633Z,27.79
2022-08-04T22:49:36.717Z,27.87
2022-08-04T22:54:39.173Z,27.78
2022-08-04T22:59:43.403Z,27.79
2022-08-04T23:04:44.926Z,27.81
2022-08-04T23:09:51.719Z,27.75
2022-08-04T23:14:54.856Z,27.82
2022-08-04T23:19:59.173Z,27.79
2022-08-04T23:25:01.269Z,27.81
2022-08-04T23:30:05.738Z,27.77
2022-08-04T23:35:07.408Z,27.78
2022-08-04T23:40:28.211Z,27.75
2022-08-04T23:46:07.628Z,27.72
2022-08-04T23:50:53.741Z,27.75
2022-08-04T23:55:55.191Z,27.77
